createdAt,value
2018-04-13T00:00:59.386Z,10.50
2018-04-13T00:03:27.617Z,9.63
2018-04-13T00:05:55.097Z,10.33
2018-04-13T00:08:22.588Z,14.30
2018-04-13T00:10:50.066Z,11.23
2018-04-13T00:13:17.554Z,15.57
2018-04-13T00:15:45.026Z,11.23
2018-04-13T00:18:12.542Z,14.20
2018-04-13T00:20:40.018Z,12.60
2018-04-13T00:23:07.501Z,9.47
2018-04-13T00:25:34.969Z,10.33
2018-04-13T00:28:03.210Z,13.13
2018-04-13T00:30:31.457Z,11.20
2018-04-13T00:32:58.943Z,8.67
2018-04-13T00:35:26.412Z,9.43
2018-04-13T00:37:54.663Z,10.37
2018-04-13T00:40:22.125Z,8.97
2018-04-13T00:42:49.629Z,8.63
2018-04-13T00:45:17.111Z,11.73
2018-04-13T00:47:45.355Z,7.50
2018-04-13T00:50:12.833Z,10.33
2018-04-13T00:52:41.093Z,8.47
2018-04-13T00:55:08.563Z,9.50
2018-04-13T00:57:36.809Z,8.70
2018-04-13T01:00:04.281Z,9.47
2018-04-13T01:02:31.768Z,9.27
2018-04-13T01:05:00.003Z,7.70
2018-04-13T01:07:27.490Z,9.20
2018-04-13T01:09:54.958Z,6.57
2018-04-13T01:12:23.202Z,7.17
2018-04-13T01:14:50.682Z,7.07
2018-04-13T01:17:18.155Z,6.80
2018-04-13T01:19:46.393Z,6.90
2018-04-13T01:22:13.861Z,7.47
2018-04-13T01:24:41.334Z,6.13
2018-04-13T01:27:09.613Z,5.63
2018-04-13T01:29:37.845Z,5.20
2018-04-13T01:32:05.329Z,10.10
2018-04-13T01:34:32.808Z,6.97
2018-04-13T01:37:00.288Z,6.90
2018-04-13T01:39:27.770Z,10.00
2018-04-13T01:41:55.250Z,7.40
2018-04-13T01:44:22.726Z,7.53
2018-04-13T01:46:50.203Z,7.00
2018-04-13T01:49:18.447Z,9.30
2018-04-13T01:51:45.913Z,7.87
2018-04-13T01:54:13.421Z,7.60
2018-04-13T01:56:40.891Z,8.10
2018-04-13T01:59:08.366Z,8.67
2018-04-13T02:01:35.847Z,8.30
2018-04-13T02:04:03.330Z,7.17
2018-04-13T02:06:31.585Z,7.20
2018-04-13T02:08:59.062Z,7.80
2018-04-13T02:11:26.522Z,8.67
2018-04-13T02:13:54.007Z,13.40
2018-04-13T02:16:21.482Z,8.73
2018-04-13T02:18:48.965Z,9.23
2018-04-13T02:21:16.446Z,8.37
2018-04-13T02:23:43.923Z,9.20
2018-04-13T02:26:12.156Z,9.20
2018-04-13T02:28:39.645Z,6.57
2018-04-13T02:31:07.113Z,7.27
2018-04-13T02:33:35.361Z,7.93
2018-04-13T02:36:02.833Z,6.90
2018-04-13T02:38:30.310Z,7.93
2018-04-13T02:40:58.555Z,10.00
2018-04-13T02:43:26.037Z,7.77
2018-04-13T02:45:53.507Z,6.70
2018-04-13T02:48:21.746Z,6.10
2018-04-13T02:50:49.216Z,6.60
2018-04-13T02:53:16.693Z,6.20
2018-04-13T02:55:44.939Z,9.70
2018-04-13T02:58:12.436Z,9.87
2018-04-13T03:00:40.667Z,8.63
2018-04-13T03:03:08.142Z,6.10
2018-04-13T03:05:35.614Z,7.53
2018-04-13T03:08:03.167Z,7.87
2018-04-13T03:10:30.630Z,7.47
2018-04-13T03:12:58.124Z,11.57
2018-04-13T03:15:25.590Z,6.50
2018-04-13T03:17:53.067Z,6.63
2018-04-13T03:20:20.530Z,8.30
2018-04-13T03:22:48.001Z,6.87
2018-04-13T03:25:15.483Z,8.70
2018-04-13T03:27:42.973Z,7.43
2018-04-13T03:30:10.431Z,8.73
2018-04-13T03:32:37.909Z,7.63
2018-04-13T03:35:05.377Z,8.50
2018-04-13T03:37:32.845Z,10.97
2018-04-13T03:40:00.374Z,11.20
2018-04-13T03:42:28.579Z,10.67
2018-04-13T03:44:56.062Z,14.33
2018-04-13T03:47:23.538Z,11.53
2018-04-13T03:49:51.814Z,10.23
2018-04-13T03:52:20.050Z,10.00
2018-04-13T03:54:47.530Z,7.73
2018-04-13T03:57:15.001Z,9.93
2018-04-13T03:59:43.257Z,8.03
2018-04-13T04:02:10.756Z,10.60
2018-04-13T04:04:38.994Z,7.07
2018-04-13T04:07:06.511Z,7.63
2018-04-13T04:09:33.998Z,11.73
2018-04-13T04:12:01.466Z,8.43
2018-04-13T04:14:28.987Z,12.90
2018-04-13T04:16:56.467Z,14.80
2018-04-13T04:19:35.669Z,11.37
2018-04-13T04:22:15.145Z,8.83
2018-04-13T04:24:54.583Z,9.73
2018-04-13T04:27:22.062Z,13.73
2018-04-13T04:29:49.551Z,16.70
2018-04-13T04:32:17.783Z,16.00
2018-04-13T04:34:45.634Z,22.93
2018-04-13T04:37:13.106Z,16.70
2018-04-13T04:39:40.594Z,13.70
2018-04-13T04:42:08.845Z,12.53
2018-04-13T04:44:36.331Z,13.80
2018-04-13T04:47:03.806Z,13.33
2018-04-13T04:49:32.061Z,11.50
2018-04-13T04:51:59.550Z,12.63
2018-04-13T04:54:27.036Z,11.30
2018-04-13T04:56:54.616Z,12.00
2018-04-13T04:59:22.091Z,10.70
2018-04-13T05:01:49.564Z,9.80
2018-04-13T05:04:17.043Z,11.80
2018-04-13T05:06:45.318Z,10.33
2018-04-13T05:09:13.570Z,10.17
2018-04-13T05:11:41.042Z,13.63
2018-04-13T05:14:09.291Z,10.60
2018-04-13T05:16:36.782Z,14.43
2018-04-13T05:19:05.036Z,16.43
2018-04-13T05:21:32.519Z,13.67
2018-04-13T05:24:00.763Z,14.20
2018-04-13T05:26:28.241Z,12.63
2018-04-13T05:28:56.500Z,12.67
2018-04-13T05:31:24.040Z,11.73
2018-04-13T05:33:51.541Z,15.10
2018-04-13T05:36:19.809Z,12.10
2018-04-13T05:38:47.293Z,14.97
2018-04-13T05:41:14.778Z,13.10
2018-04-13T05:43:42.264Z,12.30
2018-04-13T05:46:09.807Z,12.30
2018-04-13T05:48:38.005Z,15.77
2018-04-13T05:51:05.495Z,13.60
2018-04-13T05:53:33.754Z,13.90
2018-04-13T05:56:01.236Z,14.93
2018-04-13T05:58:29.471Z,14.10
2018-04-13T06:00:56.962Z,13.77
2018-04-13T06:03:25.210Z,13.57
2018-04-13T06:05:52.715Z,15.03
2018-04-13T06:08:20.192Z,19.43
2018-04-13T06:10:47.686Z,23.93
2018-04-13T06:13:15.160Z,21.93
2018-04-13T06:15:42.646Z,23.80
2018-04-13T06:18:10.883Z,24.20
2018-04-13T06:20:38.369Z,24.20
2018-04-13T06:23:06.619Z,22.93
2018-04-13T06:25:34.114Z,25.17
2018-04-13T06:28:02.356Z,28.83
2018-04-13T06:30:29.846Z,36.00
2018-04-13T06:32:58.126Z,41.87
2018-04-13T06:35:26.378Z,42.60
2018-04-13T06:37:53.855Z,43.90
2018-04-13T06:40:21.344Z,45.93
2018-04-13T06:42:48.814Z,48.00
2018-04-13T06:45:16.303Z,61.93
2018-04-13T06:47:43.778Z,53.60
2018-04-13T06:50:11.273Z,48.60
2018-04-13T06:52:38.762Z,46.13
2018-04-13T06:55:06.254Z,48.33
2018-04-13T06:57:33.741Z,50.00
2018-04-13T07:00:01.226Z,44.73
2018-04-13T07:02:28.722Z,52.93
2018-04-13T07:04:56.210Z,50.70
2018-04-13T07:07:24.451Z,56.50
2018-04-13T07:09:51.944Z,64.37
2018-04-13T07:12:20.178Z,55.60
2018-04-13T07:14:47.780Z,92.63
2018-04-13T07:17:16.018Z,84.60
2018-04-13T07:19:43.506Z,82.33
2018-04-13T07:22:11.742Z,81.50
2018-04-13T07:24:39.222Z,72.40
2018-04-13T07:27:06.723Z,76.47
2018-04-13T07:29:34.227Z,68.40
2018-04-13T07:32:01.712Z,71.87
2018-04-13T07:34:29.186Z,75.87
2018-04-13T07:36:57.425Z,79.40
2018-04-13T07:39:24.931Z,97.23
2018-04-13T07:41:53.840Z,107.43
2018-04-13T07:44:21.333Z,103.37
2018-04-13T07:46:48.875Z,87.77
2018-04-13T07:49:16.350Z,83.43
2018-04-13T07:51:44.055Z,104.83
2018-04-13T07:54:11.343Z,84.33
2018-04-13T07:56:38.847Z,87.33
2018-04-13T07:59:06.317Z,91.23
2018-04-13T08:01:34.579Z,90.37
2018-04-13T08:04:02.059Z,91.70
2018-04-13T08:06:30.310Z,91.67
2018-04-13T08:08:57.784Z,91.37
2018-04-13T08:11:25.268Z,85.10
2018-04-13T08:13:53.774Z,93.60
2018-04-13T08:16:21.257Z,94.43
2018-04-13T08:18:48.734Z,86.60
2018-04-13T08:21:16.217Z,80.50
2018-04-13T08:23:44.450Z,90.03
2018-04-13T08:26:11.946Z,80.90
2018-04-13T08:28:40.192Z,90.27
2018-04-13T08:31:08.442Z,85.57
2018-04-13T08:33:35.926Z,82.53
2018-04-13T08:36:03.411Z,84.10
2018-04-13T08:38:30.915Z,80.13
2018-04-13T08:40:58.402Z,77.07
2018-04-13T08:43:25.930Z,76.30
2018-04-13T08:45:53.401Z,89.10
2018-04-13T08:48:20.874Z,79.23
2018-04-13T08:50:48.365Z,75.33
2018-04-13T08:53:15.882Z,73.20
2018-04-13T08:55:43.401Z,74.43
2018-04-13T08:58:10.865Z,72.70
2018-04-13T09:00:39.119Z,72.43
2018-04-13T09:03:07.369Z,80.47
2018-04-13T09:05:34.858Z,80.70
2018-04-13T09:08:02.358Z,70.60
2018-04-13T09:10:29.863Z,68.10
2018-04-13T09:16:08.964Z,65.40
2018-04-13T09:18:36.439Z,59.23
2018-04-13T09:21:03.926Z,54.87
2018-04-13T09:23:31.398Z,63.80
2018-04-13T09:25:58.877Z,61.90
2018-04-13T09:28:27.126Z,53.87
2018-04-13T09:30:54.610Z,62.37
2018-04-13T09:33:22.867Z,60.83
2018-04-13T09:35:50.366Z,55.33
2018-04-13T09:38:17.826Z,51.80
2018-04-13T09:40:45.314Z,53.60
2018-04-13T09:43:12.798Z,56.30
2018-04-13T09:45:40.280Z,65.90
2018-04-13T09:48:08.525Z,55.30
2018-04-13T09:50:36.046Z,59.37
2018-04-13T09:53:04.257Z,57.97
2018-04-13T09:55:31.727Z,50.03
2018-04-13T09:57:59.227Z,58.10
2018-04-13T10:00:30.541Z,54.03
2018-04-13T10:03:03.015Z,58.87
2018-04-13T10:05:30.479Z,56.83
2018-04-13T10:07:57.958Z,61.70
2018-04-13T10:10:26.195Z,51.03
2018-04-13T10:12:53.699Z,51.03
2018-04-13T10:15:21.173Z,53.63
2018-04-13T10:17:48.676Z,52.90
2018-04-13T10:20:16.149Z,51.23
2018-04-13T10:22:43.633Z,49.10
2018-04-13T10:25:11.117Z,45.70
2018-04-13T10:27:38.598Z,48.63
2018-04-13T10:30:06.082Z,45.20
2018-04-13T10:32:33.575Z,46.00
2018-04-13T10:35:01.055Z,46.77
2018-04-13T10:37:28.564Z,42.63
2018-04-13T10:39:58.828Z,49.80
2018-04-13T10:42:26.521Z,48.23
2018-04-13T10:44:53.994Z,48.50
2018-04-13T10:47:21.486Z,51.40
2018-04-13T10:49:49.725Z,52.60
2018-04-13T10:52:17.202Z,47.47
2018-04-13T10:54:44.705Z,50.00
2018-04-13T10:57:12.180Z,47.03
2018-04-13T10:59:39.654Z,42.93
2018-04-13T11:02:07.132Z,44.13
2018-04-13T11:04:34.618Z,40.10
2018-04-13T11:07:02.097Z,39.43
2018-04-13T11:09:29.586Z,41.20
2018-04-13T11:11:57.057Z,36.07
2018-04-13T11:14:24.548Z,36.47
2018-04-13T11:16:52.809Z,37.17
2018-04-13T11:19:20.282Z,36.10
2018-04-13T11:21:48.524Z,36.60
2018-04-13T11:24:16.010Z,34.27
2018-04-13T11:26:44.241Z,28.90
2018-04-13T11:29:11.730Z,28.60
2018-04-13T11:31:39.210Z,30.50
2018-04-13T11:34:06.691Z,32.87
2018-04-13T11:36:34.167Z,31.73
2018-04-13T11:39:01.658Z,29.13
2018-04-13T11:41:29.148Z,29.70
2018-04-13T11:43:57.422Z,25.83
2018-04-13T11:46:25.670Z,37.13
2018-04-13T11:48:53.162Z,27.57
2018-04-13T11:51:21.409Z,28.93
2018-04-13T11:53:48.890Z,23.57
2018-04-13T11:56:17.143Z,17.53
2018-04-13T11:58:44.697Z,22.37
2018-04-13T12:01:12.178Z,18.20
2018-04-13T12:03:40.430Z,22.73
2018-04-13T12:06:07.959Z,24.23
2018-04-13T12:08:35.821Z,25.30
2018-04-13T12:11:03.378Z,21.93
2018-04-13T12:13:30.959Z,23.30
2018-04-13T12:15:58.544Z,22.40
2018-04-13T12:18:26.022Z,18.57
2018-04-13T12:20:53.510Z,16.70
2018-04-13T12:23:20.996Z,14.80
2018-04-13T12:25:48.519Z,22.93
2018-04-13T12:28:16.006Z,24.30
2018-04-13T12:30:43.879Z,17.10
2018-04-13T12:33:11.357Z,16.73
2018-04-13T12:35:38.857Z,22.33
2018-04-13T12:38:07.097Z,18.37
2018-04-13T12:40:34.627Z,21.93
2018-04-13T12:43:02.119Z,21.63
2018-04-13T12:45:29.599Z,20.03
2018-04-13T12:47:57.077Z,20.67
2018-04-13T12:50:25.338Z,21.73
2018-04-13T12:52:52.814Z,32.13
2018-04-13T12:55:21.109Z,23.73
2018-04-13T12:57:49.860Z,25.60
2018-04-13T13:00:18.209Z,21.97
2018-04-13T13:02:45.686Z,21.37
2018-04-13T13:05:13.171Z,21.53
2018-04-13T13:07:41.491Z,22.87
2018-04-13T13:10:08.987Z,17.43
2018-04-13T13:12:36.463Z,21.57
2018-04-13T13:15:04.791Z,19.87
2018-04-13T13:17:32.268Z,23.20
2018-04-13T13:19:59.746Z,22.03
2018-04-13T13:22:27.242Z,29.87
2018-04-13T13:25:01.884Z,20.57
2018-04-13T13:27:30.424Z,23.83
2018-04-13T13:29:57.908Z,20.50
2018-04-13T13:32:25.389Z,22.20
2018-04-13T13:34:52.871Z,19.23
2018-04-13T13:37:20.464Z,19.73
2018-04-13T13:39:48.823Z,16.80
2018-04-13T13:42:16.314Z,17.07
2018-04-13T13:44:45.340Z,17.90
2018-04-13T13:47:12.859Z,14.20
2018-04-13T13:49:42.580Z,20.03
2018-04-13T13:52:12.337Z,15.83
2018-04-13T13:54:39.885Z,22.43
2018-04-13T13:57:07.514Z,19.30
2018-04-13T13:59:35.791Z,22.37
2018-04-13T14:02:03.358Z,23.13
2018-04-13T14:04:30.880Z,17.67
2018-04-13T14:06:59.257Z,21.10
2018-04-13T14:09:26.791Z,18.53
2018-04-13T14:11:55.098Z,21.33
2018-04-13T14:14:22.600Z,19.90
2018-04-13T14:16:50.110Z,18.63
2018-04-13T14:19:17.583Z,17.97
2018-04-13T14:21:47.456Z,21.20
2018-04-13T14:24:14.996Z,15.80
2018-04-13T14:26:46.465Z,21.80
2018-04-13T14:29:14.075Z,30.23
2018-04-13T14:31:42.405Z,27.40
2018-04-13T14:34:10.990Z,22.60
2018-04-13T14:36:39.689Z,21.40
2018-04-13T14:39:07.279Z,28.93
2018-04-13T14:41:36.107Z,27.00
2018-04-13T14:44:04.249Z,24.73
2018-04-13T14:46:31.745Z,31.90
2018-04-13T14:48:59.291Z,30.63
2018-04-13T14:51:27.644Z,30.93
2018-04-13T14:53:55.094Z,30.03
2018-04-13T14:56:22.606Z,33.30
2018-04-13T14:58:50.134Z,32.00
2018-04-13T15:01:17.616Z,33.07
2018-04-13T15:03:45.868Z,36.13
2018-04-13T15:06:13.383Z,33.20
2018-04-13T15:08:40.981Z,32.40
2018-04-13T15:11:08.534Z,32.53
2018-04-13T15:13:36.104Z,39.20
2018-04-13T15:16:04.757Z,35.80
2018-04-13T15:18:32.324Z,31.53
2018-04-13T15:20:59.835Z,28.87
2018-04-13T15:23:28.097Z,28.40
2018-04-13T15:25:55.575Z,28.67
2018-04-13T15:28:23.825Z,40.97
2018-04-13T15:30:51.302Z,38.43
2018-04-13T15:33:18.795Z,28.60
2018-04-13T15:35:46.266Z,38.10
2018-04-13T15:38:14.013Z,33.90
2018-04-13T15:40:41.611Z,39.87
2018-04-13T15:43:09.234Z,35.00
2018-04-13T15:45:37.773Z,34.03
2018-04-13T15:48:05.438Z,35.93
2018-04-13T15:50:32.910Z,35.20
2018-04-13T15:53:01.195Z,39.70
2018-04-13T15:55:29.622Z,35.93
2018-04-13T15:57:58.044Z,34.77
2018-04-13T16:00:26.395Z,40.50
2018-04-13T16:02:53.906Z,39.20
2018-04-13T16:05:21.408Z,40.57
2018-04-13T16:07:49.726Z,40.37
2018-04-13T16:10:18.188Z,44.50
2018-04-13T16:12:45.682Z,39.67
2018-04-13T16:15:14.193Z,43.17
2018-04-13T16:17:41.737Z,41.73
2018-04-13T16:20:09.224Z,41.93
2018-04-13T16:22:36.741Z,42.37
2018-04-13T16:25:04.972Z,48.33
2018-04-13T16:27:32.457Z,57.13
2018-04-13T16:29:59.967Z,55.17
2018-04-13T16:32:27.447Z,52.33
2018-04-13T16:34:54.957Z,61.70
2018-04-13T16:37:22.455Z,51.80
2018-04-13T16:39:49.922Z,55.20
2018-04-13T16:42:17.443Z,57.30
2018-04-13T16:44:44.920Z,54.10
2018-04-13T16:47:12.427Z,55.93
2018-04-13T16:49:39.972Z,65.20
2018-04-13T16:52:08.295Z,53.63
2018-04-13T16:54:39.725Z,58.20
2018-04-13T16:57:08.854Z,55.93
2018-04-13T16:59:36.565Z,57.63
2018-04-13T17:02:04.169Z,51.87
2018-04-13T17:04:32.364Z,53.33
2018-04-13T17:07:00.722Z,52.27
2018-04-13T17:09:28.219Z,50.67
2018-04-13T17:11:55.701Z,53.00
2018-04-13T17:14:23.931Z,54.23
2018-04-13T17:16:51.426Z,58.37
2018-04-13T17:19:18.941Z,61.40
2018-04-13T17:21:47.760Z,60.40
2018-04-13T17:24:15.377Z,32.27
2018-04-13T17:26:44.916Z,35.67
2018-04-13T17:29:13.807Z,25.50
2018-04-13T17:31:41.351Z,18.17
2018-04-13T17:34:08.844Z,14.73
2018-04-13T17:36:36.346Z,14.77
2018-04-13T17:39:04.600Z,14.20
2018-04-13T17:41:32.094Z,13.43
2018-04-13T17:43:59.586Z,13.60
2018-04-13T17:46:27.066Z,13.20
2018-04-13T17:48:55.338Z,12.03
2018-04-13T17:51:22.823Z,12.10
2018-04-13T17:53:51.153Z,13.50
2018-04-13T17:56:18.649Z,10.30
2018-04-13T17:58:46.134Z,12.33
2018-04-13T18:01:14.374Z,13.33
2018-04-13T18:03:41.862Z,12.27
2018-04-13T18:06:10.119Z,13.63
2018-04-13T18:08:38.399Z,14.60
2018-04-13T18:11:06.226Z,13.73
2018-04-13T18:13:33.749Z,13.20
2018-04-13T18:16:01.995Z,12.10
2018-04-13T18:18:29.486Z,11.27
2018-04-13T18:20:57.771Z,12.10
2018-04-13T18:23:26.045Z,13.43
2018-04-13T18:25:54.294Z,10.63
2018-04-13T18:28:21.803Z,12.03
2018-04-13T18:30:49.347Z,11.77
2018-04-13T18:33:17.588Z,13.87
2018-04-13T18:35:45.132Z,15.07
2018-04-13T18:38:12.625Z,14.10
2018-04-13T18:40:40.126Z,13.10
2018-04-13T18:43:07.684Z,13.53
2018-04-13T18:45:35.161Z,14.63
2018-04-13T18:48:02.660Z,13.17
2018-04-13T18:50:30.146Z,13.90
2018-04-13T18:52:57.623Z,12.83
2018-04-13T18:55:25.121Z,15.30
2018-04-13T18:57:55.495Z,15.57
2018-04-13T19:00:23.134Z,18.40
2018-04-13T19:02:52.758Z,17.73
2018-04-13T19:05:21.011Z,15.50
2018-04-13T19:07:49.288Z,15.57
2018-04-13T19:10:16.851Z,15.07
2018-04-13T19:12:45.137Z,14.73
2018-04-13T19:15:13.395Z,15.67
2018-04-13T19:17:40.893Z,16.20
2018-04-13T19:20:08.688Z,15.60
2018-04-13T19:22:36.305Z,14.47
2018-04-13T19:25:04.570Z,15.73
2018-04-13T19:27:32.834Z,15.50
2018-04-13T19:30:01.186Z,18.07
2018-04-13T19:32:29.446Z,15.80
2018-04-13T19:34:56.954Z,15.30
2018-04-13T19:37:24.441Z,15.67
2018-04-13T19:39:51.932Z,16.00
2018-04-13T19:42:19.429Z,20.87
2018-04-13T19:44:46.930Z,16.57
2018-04-13T19:47:14.444Z,15.93
2018-04-13T19:49:41.935Z,17.87
2018-04-13T19:52:09.406Z,14.90
2018-04-13T19:54:36.907Z,19.23
2018-04-13T19:57:04.436Z,14.93
2018-04-13T19:59:31.934Z,17.00
2018-04-13T20:01:59.453Z,17.63
2018-04-13T20:04:26.964Z,14.53
2018-04-13T20:06:54.454Z,18.00
2018-04-13T20:09:21.942Z,14.10
2018-04-13T20:11:49.435Z,17.53
2018-04-13T20:14:24.670Z,18.87
2018-04-13T20:16:52.165Z,18.37
2018-04-13T20:19:20.154Z,16.07
2018-04-13T20:21:47.623Z,21.43
2018-04-13T20:24:15.162Z,19.20
2018-04-13T20:26:42.638Z,16.87
2018-04-13T20:29:10.125Z,19.23
2018-04-13T20:31:37.614Z,22.10
2018-04-13T20:34:05.902Z,23.47
2018-04-13T20:36:34.144Z,24.37
2018-04-13T20:39:01.625Z,18.90
2018-04-13T20:41:29.951Z,19.10
2018-04-13T20:43:57.466Z,24.93
2018-04-13T20:46:25.739Z,24.20
2018-04-13T20:48:54.201Z,25.13
2018-04-13T20:51:21.677Z,25.07
2018-04-13T20:53:49.941Z,27.33
2018-04-13T20:56:17.407Z,23.83
2018-04-13T20:58:44.908Z,25.70
2018-04-13T21:01:12.392Z,22.77
2018-04-13T21:03:40.911Z,25.60
2018-04-13T21:06:09.163Z,24.20
2018-04-13T21:08:36.687Z,24.83
2018-04-13T21:11:04.171Z,28.07
2018-04-13T21:13:31.641Z,29.23
2018-04-13T21:15:59.125Z,27.80
2018-04-13T21:18:26.607Z,27.53
2018-04-13T21:20:54.101Z,30.03
2018-04-13T21:23:21.625Z,33.17
2018-04-13T21:25:49.130Z,30.37
2018-04-13T21:28:16.602Z,25.40
2018-04-13T21:30:44.088Z,23.73
2018-04-13T21:33:12.367Z,24.13
2018-04-13T21:35:40.622Z,26.03
2018-04-13T21:38:08.162Z,27.37
2018-04-13T21:40:35.656Z,24.00
2018-04-13T21:43:03.893Z,27.07
2018-04-13T21:45:31.374Z,28.57
2018-04-13T21:47:58.854Z,32.50
2018-04-13T21:50:27.107Z,29.07
2018-04-13T21:52:54.634Z,31.60
2018-04-13T21:55:22.114Z,33.07
2018-04-13T21:57:49.670Z,35.03
2018-04-13T22:00:17.158Z,36.37
2018-04-13T22:02:44.690Z,34.67
2018-04-13T22:05:12.186Z,38.90
2018-04-13T22:07:40.506Z,41.97
2018-04-13T22:10:08.014Z,39.77
2018-04-13T22:12:47.475Z,42.57
2018-04-13T22:15:15.741Z,42.73
2018-04-13T22:17:43.989Z,41.90
2018-04-13T22:20:11.489Z,53.17
2018-04-13T22:22:39.793Z,46.93
2018-04-13T22:25:07.310Z,46.43
2018-04-13T22:27:34.966Z,44.50
2018-04-13T22:30:03.229Z,51.03
2018-04-13T22:32:30.861Z,51.80
2018-04-13T22:34:59.175Z,55.67
2018-04-13T22:37:26.658Z,52.70
2018-04-13T22:39:54.901Z,55.60
2018-04-13T22:42:22.411Z,51.13
2018-04-13T22:44:50.679Z,51.30
2018-04-13T22:47:18.176Z,57.33
2018-04-13T22:49:45.736Z,62.00
2018-04-13T22:52:13.980Z,48.30
2018-04-13T22:54:41.525Z,63.30
2018-04-13T22:57:09.786Z,70.27
2018-04-13T22:59:38.040Z,63.87
2018-04-13T23:02:06.310Z,63.17
2018-04-13T23:04:33.873Z,56.93
2018-04-13T23:07:02.129Z,58.33
2018-04-13T23:09:29.713Z,59.17
2018-04-13T23:11:57.264Z,61.70
2018-04-13T23:14:25.625Z,58.90
2018-04-13T23:16:53.136Z,73.43
2018-04-13T23:19:20.628Z,75.67
2018-04-13T23:21:48.141Z,85.40
2018-04-13T23:24:15.621Z,91.97
2018-04-13T23:26:43.097Z,94.13
2018-04-13T23:29:10.581Z,99.17
2018-04-13T23:31:38.062Z,101.93
2018-04-13T23:34:05.565Z,95.87
2018-04-13T23:36:33.817Z,103.57
2018-04-13T23:39:01.290Z,98.27
2018-04-13T23:41:29.558Z,104.73
2018-04-13T23:43:57.031Z,104.23
2018-04-13T23:46:25.281Z,106.30
2018-04-13T23:48:52.762Z,111.30
2018-04-13T23:51:21.038Z,97.00
2018-04-13T23:53:49.318Z,108.10
2018-04-13T23:56:17.565Z,98.27
2018-04-13T23:58:45.049Z,103.27
